sensor_id;sensor_type;location;lat;lon;timestamp;P1;durP1;ratioP1;P2;durP2;ratioP2
85223;SDS011;75619;51.316;4.824;2024-03-08T00:00:18;38.78;;;13.95;;
85223;SDS011;75619;51.316;4.824;2024-03-08T00:02:44;35.65;;;15.07;;
85223;SDS011;75619;51.316;4.824;2024-03-08T00:05:11;38.60;;;13.93;;
85223;SDS011;75619;51.316;4.824;2024-03-08T00:07:38;34.20;;;13.93;;
85223;SDS011;75619;51.316;4.824;2024-03-08T00:10:04;35.90;;;14.32;;
85223;SDS011;75619;51.316;4.824;2024-03-08T00:12:31;33.85;;;14.30;;
85223;SDS011;75619;51.316;4.824;2024-03-08T00:14:56;46.55;;;15.32;;
85223;SDS011;75619;51.316;4.824;2024-03-08T00:17:22;36.53;;;14.20;;
85223;SDS011;75619;51.316;4.824;2024-03-08T00:19:48;30.75;;;13.93;;
85223;SDS011;75619;51.316;4.824;2024-03-08T01:59:32;23.93;;;9.73;;
85223;SDS011;75619;51.316;4.824;2024-03-08T02:01:59;31.85;;;13.40;;
85223;SDS011;75619;51.316;4.824;2024-03-08T02:04:26;25.65;;;12.07;;
85223;SDS011;75619;51.316;4.824;2024-03-08T02:06:52;28.50;;;13.13;;
85223;SDS011;75619;51.316;4.824;2024-03-08T02:09:18;33.55;;;14.77;;
85223;SDS011;75619;51.316;4.824;2024-03-08T02:11:43;30.15;;;13.75;;
85223;SDS011;75619;51.316;4.824;2024-03-08T02:14:10;37.13;;;14.82;;
85223;SDS011;75619;51.316;4.824;2024-03-08T02:16:36;33.58;;;13.63;;
85223;SDS011;75619;51.316;4.824;2024-03-08T02:19:03;36.83;;;15.93;;
85223;SDS011;75619;51.316;4.824;2024-03-08T02:21:28;29.77;;;12.10;;
85223;SDS011;75619;51.316;4.824;2024-03-08T02:23:55;28.77;;;13.00;;
85223;SDS011;75619;51.316;4.824;2024-03-08T02:26:21;27.08;;;10.85;;
85223;SDS011;75619;51.316;4.824;2024-03-08T02:28:47;27.92;;;12.57;;
85223;SDS011;75619;51.316;4.824;2024-03-08T02:31:14;27.75;;;14.48;;
85223;SDS011;75619;51.316;4.824;2024-03-08T02:33:40;25.20;;;12.38;;
85223;SDS011;75619;51.316;4.824;2024-03-08T02:36:05;26.48;;;12.85;;
85223;SDS011;75619;51.316;4.824;2024-03-08T02:38:31;36.67;;;16.75;;
85223;SDS011;75619;51.316;4.824;2024-03-08T02:40:57;30.20;;;12.88;;
85223;SDS011;75619;51.316;4.824;2024-03-08T02:43:22;32.38;;;14.20;;
85223;SDS011;75619;51.316;4.824;2024-03-08T02:45:49;32.58;;;13.63;;
85223;SDS011;75619;51.316;4.824;2024-03-08T02:48:15;28.55;;;13.52;;
85223;SDS011;75619;51.316;4.824;2024-03-08T02:50:44;31.10;;;12.48;;
85223;SDS011;75619;51.316;4.824;2024-03-08T02:53:10;27.58;;;13.20;;
85223;SDS011;75619;51.316;4.824;2024-03-08T02:55:39;31.73;;;12.85;;
85223;SDS011;75619;51.316;4.824;2024-03-08T02:58:06;25.25;;;12.48;;
85223;SDS011;75619;51.316;4.824;2024-03-08T03:00:35;28.23;;;13.13;;
85223;SDS011;75619;51.316;4.824;2024-03-08T03:03:02;28.75;;;13.32;;
85223;SDS011;75619;51.316;4.824;2024-03-08T03:05:28;28.20;;;11.95;;
85223;SDS011;75619;51.316;4.824;2024-03-08T03:07:57;28.45;;;13.52;;
85223;SDS011;75619;51.316;4.824;2024-03-08T03:10:23;28.10;;;12.13;;
85223;SDS011;75619;51.316;4.824;2024-03-08T03:12:49;35.13;;;13.98;;
85223;SDS011;75619;51.316;4.824;2024-03-08T03:15:15;33.22;;;14.23;;
85223;SDS011;75619;51.316;4.824;2024-03-08T03:17:47;30.10;;;13.77;;
85223;SDS011;75619;51.316;4.824;2024-03-08T03:20:16;31.77;;;11.25;;
85223;SDS011;75619;51.316;4.824;2024-03-08T03:22:48;29.75;;;14.00;;
85223;SDS011;75619;51.316;4.824;2024-03-08T03:25:17;27.00;;;12.32;;
85223;SDS011;75619;51.316;4.824;2024-03-08T03:27:51;23.42;;;11.85;;
85223;SDS011;75619;51.316;4.824;2024-03-08T03:30:18;30.17;;;11.57;;
85223;SDS011;75619;51.316;4.824;2024-03-08T03:32:47;30.85;;;12.10;;
85223;SDS011;75619;51.316;4.824;2024-03-08T03:35:13;28.52;;;12.63;;
85223;SDS011;75619;51.316;4.824;2024-03-08T03:37:40;31.23;;;13.50;;
85223;SDS011;75619;51.316;4.824;2024-03-08T03:40:08;33.90;;;14.07;;
85223;SDS011;75619;51.316;4.824;2024-03-08T03:42:34;27.42;;;13.25;;
85223;SDS011;75619;51.316;4.824;2024-03-08T03:45:00;29.38;;;13.45;;
85223;SDS011;75619;51.316;4.824;2024-03-08T03:47:27;29.10;;;12.77;;
85223;SDS011;75619;51.316;4.824;2024-03-08T03:49:53;34.40;;;15.27;;
85223;SDS011;75619;51.316;4.824;2024-03-08T03:52:19;29.45;;;13.55;;
85223;SDS011;75619;51.316;4.824;2024-03-08T03:54:45;30.95;;;13.48;;
85223;SDS011;75619;51.316;4.824;2024-03-08T03:57:10;35.47;;;13.52;;
85223;SDS011;75619;51.316;4.824;2024-03-08T03:59:37;28.95;;;13.43;;
85223;SDS011;75619;51.316;4.824;2024-03-08T04:02:03;31.88;;;13.13;;
85223;SDS011;75619;51.316;4.824;2024-03-08T04:04:29;32.13;;;14.48;;
85223;SDS011;75619;51.316;4.824;2024-03-08T04:06:54;32.85;;;14.35;;
85223;SDS011;75619;51.316;4.824;2024-03-08T04:09:20;28.35;;;14.23;;
85223;SDS011;75619;51.316;4.824;2024-03-08T04:11:48;25.20;;;13.63;;
85223;SDS011;75619;51.316;4.824;2024-03-08T04:14:14;25.48;;;12.57;;
85223;SDS011;75619;51.316;4.824;2024-03-08T04:16:40;25.35;;;12.85;;
85223;SDS011;75619;51.316;4.824;2024-03-08T04:19:05;26.02;;;13.13;;
85223;SDS011;75619;51.316;4.824;2024-03-08T04:21:31;23.67;;;12.55;;
85223;SDS011;75619;51.316;4.824;2024-03-08T04:23:56;27.27;;;13.18;;
85223;SDS011;75619;51.316;4.824;2024-03-08T04:26:22;33.08;;;14.27;;
85223;SDS011;75619;51.316;4.824;2024-03-08T04:28:48;29.67;;;12.75;;
85223;SDS011;75619;51.316;4.824;2024-03-08T04:31:13;22.73;;;9.90;;
85223;SDS011;75619;51.316;4.824;2024-03-08T04:33:40;30.27;;;13.75;;
85223;SDS011;75619;51.316;4.824;2024-03-08T04:36:06;23.85;;;11.43;;
85223;SDS011;75619;51.316;4.824;2024-03-08T04:38:33;27.55;;;13.63;;
85223;SDS011;75619;51.316;4.824;2024-03-08T04:40:59;31.98;;;13.25;;
85223;SDS011;75619;51.316;4.824;2024-03-08T04:43:27;29.38;;;12.48;;
85223;SDS011;75619;51.316;4.824;2024-03-08T04:45:55;28.35;;;12.27;;
85223;SDS011;75619;51.316;4.824;2024-03-08T04:48:21;26.88;;;10.93;;
85223;SDS011;75619;51.316;4.824;2024-03-08T04:50:46;27.83;;;12.38;;
85223;SDS011;75619;51.316;4.824;2024-03-08T04:53:12;25.20;;;11.85;;
85223;SDS011;75619;51.316;4.824;2024-03-08T04:55:37;23.20;;;12.07;;
85223;SDS011;75619;51.316;4.824;2024-03-08T04:58:03;38.05;;;14.02;;
85223;SDS011;75619;51.316;4.824;2024-03-08T05:00:31;21.88;;;10.25;;
85223;SDS011;75619;51.316;4.824;2024-03-08T05:02:57;25.40;;;10.68;;
85223;SDS011;75619;51.316;4.824;2024-03-08T05:05:23;22.83;;;11.25;;
85223;SDS011;75619;51.316;4.824;2024-03-08T05:07:51;26.60;;;12.48;;
85223;SDS011;75619;51.316;4.824;2024-03-08T05:10:17;31.27;;;12.55;;
85223;SDS011;75619;51.316;4.824;2024-03-08T05:12:43;29.27;;;13.38;;
85223;SDS011;75619;51.316;4.824;2024-03-08T05:15:09;27.25;;;12.57;;
85223;SDS011;75619;51.316;4.824;2024-03-08T05:17:34;26.77;;;12.23;;
85223;SDS011;75619;51.316;4.824;2024-03-08T05:20:00;29.15;;;12.57;;
85223;SDS011;75619;51.316;4.824;2024-03-08T05:22:26;26.77;;;11.98;;
85223;SDS011;75619;51.316;4.824;2024-03-08T05:24:52;28.42;;;13.23;;
85223;SDS011;75619;51.316;4.824;2024-03-08T05:27:17;31.45;;;13.38;;
85223;SDS011;75619;51.316;4.824;2024-03-08T05:29:43;34.17;;;12.95;;
85223;SDS011;75619;51.316;4.824;2024-03-08T05:32:08;33.13;;;13.80;;
85223;SDS011;75619;51.316;4.824;2024-03-08T05:34:35;29.95;;;13.18;;
85223;SDS011;75619;51.316;4.824;2024-03-08T05:37:00;32.03;;;12.60;;
85223;SDS011;75619;51.316;4.824;2024-03-08T05:39:26;35.63;;;13.85;;
85223;SDS011;75619;51.316;4.824;2024-03-08T05:41:52;38.97;;;14.95;;
85223;SDS011;75619;51.316;4.824;2024-03-08T05:44:18;32.95;;;13.02;;
85223;SDS011;75619;51.316;4.824;2024-03-08T05:46:44;35.83;;;14.05;;
85223;SDS011;75619;51.316;4.824;2024-03-08T05:49:11;36.22;;;14.07;;
85223;SDS011;75619;51.316;4.824;2024-03-08T05:51:38;26.35;;;12.88;;
85223;SDS011;75619;51.316;4.824;2024-03-08T05:54:05;29.63;;;11.98;;
85223;SDS011;75619;51.316;4.824;2024-03-08T05:56:34;34.22;;;14.10;;
85223;SDS011;75619;51.316;4.824;2024-03-08T05:58:59;25.52;;;11.35;;
85223;SDS011;75619;51.316;4.824;2024-03-08T06:01:25;34.90;;;13.90;;
85223;SDS011;75619;51.316;4.824;2024-03-08T06:03:54;24.35;;;10.18;;
85223;SDS011;75619;51.316;4.824;2024-03-08T06:06:21;27.05;;;12.30;;
85223;SDS011;75619;51.316;4.824;2024-03-08T06:08:48;31.63;;;13.30;;
85223;SDS011;75619;51.316;4.824;2024-03-08T06:11:17;23.27;;;10.32;;
85223;SDS011;75619;51.316;4.824;2024-03-08T06:13:47;28.42;;;12.90;;
85223;SDS011;75619;51.316;4.824;2024-03-08T06:16:12;28.85;;;13.23;;
85223;SDS011;75619;51.316;4.824;2024-03-08T06:18:38;28.90;;;12.70;;
85223;SDS011;75619;51.316;4.824;2024-03-08T06:21:04;25.23;;;11.13;;
85223;SDS011;75619;51.316;4.824;2024-03-08T06:23:33;28.27;;;12.00;;
85223;SDS011;75619;51.316;4.824;2024-03-08T06:26:00;23.77;;;11.95;;
85223;SDS011;75619;51.316;4.824;2024-03-08T06:28:26;27.48;;;11.43;;
85223;SDS011;75619;51.316;4.824;2024-03-08T06:30:51;29.38;;;12.55;;
85223;SDS011;75619;51.316;4.824;2024-03-08T06:33:18;30.02;;;12.13;;
85223;SDS011;75619;51.316;4.824;2024-03-08T06:35:43;23.10;;;9.23;;
85223;SDS011;75619;51.316;4.824;2024-03-08T06:38:09;30.88;;;16.40;;
85223;SDS011;75619;51.316;4.824;2024-03-08T06:40:35;34.27;;;14.20;;
85223;SDS011;75619;51.316;4.824;2024-03-08T06:43:00;28.67;;;12.88;;
85223;SDS011;75619;51.316;4.824;2024-03-08T06:45:26;23.83;;;11.80;;
85223;SDS011;75619;51.316;4.824;2024-03-08T06:47:52;30.00;;;13.27;;
85223;SDS011;75619;51.316;4.824;2024-03-08T06:50:17;28.48;;;12.77;;
85223;SDS011;75619;51.316;4.824;2024-03-08T06:52:43;28.73;;;12.68;;
85223;SDS011;75619;51.316;4.824;2024-03-08T06:55:09;33.75;;;13.27;;
85223;SDS011;75619;51.316;4.824;2024-03-08T06:57:38;27.20;;;12.80;;
85223;SDS011;75619;51.316;4.824;2024-03-08T07:00:06;26.90;;;12.23;;
85223;SDS011;75619;51.316;4.824;2024-03-08T07:02:35;24.90;;;12.93;;
85223;SDS011;75619;51.316;4.824;2024-03-08T07:05:01;33.97;;;14.00;;
85223;SDS011;75619;51.316;4.824;2024-03-08T07:07:27;29.88;;;13.10;;
85223;SDS011;75619;51.316;4.824;2024-03-08T07:09:52;24.35;;;12.05;;
85223;SDS011;75619;51.316;4.824;2024-03-08T07:12:18;30.17;;;12.85;;
85223;SDS011;75619;51.316;4.824;2024-03-08T07:14:46;24.88;;;12.07;;
85223;SDS011;75619;51.316;4.824;2024-03-08T07:17:12;27.40;;;13.10;;
85223;SDS011;75619;51.316;4.824;2024-03-08T07:19:38;29.83;;;15.07;;
85223;SDS011;75619;51.316;4.824;2024-03-08T07:22:04;23.63;;;11.23;;
85223;SDS011;75619;51.316;4.824;2024-03-08T07:24:34;20.13;;;9.30;;
85223;SDS011;75619;51.316;4.824;2024-03-08T07:27:19;30.42;;;13.02;;
85223;SDS011;75619;51.316;4.824;2024-03-08T07:29:44;25.33;;;12.65;;
85223;SDS011;75619;51.316;4.824;2024-03-08T07:32:11;26.20;;;11.52;;
85223;SDS011;75619;51.316;4.824;2024-03-08T07:34:44;21.75;;;11.07;;
85223;SDS011;75619;51.316;4.824;2024-03-08T07:37:10;31.30;;;13.73;;
85223;SDS011;75619;51.316;4.824;2024-03-08T07:39:38;31.05;;;12.02;;
85223;SDS011;75619;51.316;4.824;2024-03-08T07:42:04;29.75;;;12.82;;
85223;SDS011;75619;51.316;4.824;2024-03-08T07:44:30;23.27;;;11.73;;
85223;SDS011;75619;51.316;4.824;2024-03-08T07:46:56;29.70;;;13.10;;
85223;SDS011;75619;51.316;4.824;2024-03-08T07:49:22;25.85;;;13.25;;
85223;SDS011;75619;51.316;4.824;2024-03-08T07:51:48;26.25;;;13.20;;
85223;SDS011;75619;51.316;4.824;2024-03-08T07:54:14;33.40;;;13.45;;
85223;SDS011;75619;51.316;4.824;2024-03-08T07:56:40;33.92;;;13.20;;
85223;SDS011;75619;51.316;4.824;2024-03-08T07:59:05;24.00;;;10.48;;
85223;SDS011;75619;51.316;4.824;2024-03-08T08:01:31;33.28;;;12.60;;
85223;SDS011;75619;51.316;4.824;2024-03-08T08:03:58;27.63;;;12.85;;
85223;SDS011;75619;51.316;4.824;2024-03-08T08:06:26;29.17;;;12.35;;
85223;SDS011;75619;51.316;4.824;2024-03-08T08:08:58;22.75;;;11.40;;
85223;SDS011;75619;51.316;4.824;2024-03-08T08:11:27;27.08;;;12.70;;
85223;SDS011;75619;51.316;4.824;2024-03-08T08:13:54;28.20;;;12.15;;
85223;SDS011;75619;51.316;4.824;2024-03-08T08:16:23;30.20;;;12.15;;
85223;SDS011;75619;51.316;4.824;2024-03-08T08:18:48;25.20;;;10.93;;
85223;SDS011;75619;51.316;4.824;2024-03-08T08:21:15;22.35;;;12.48;;
85223;SDS011;75619;51.316;4.824;2024-03-08T08:23:40;33.42;;;14.02;;
85223;SDS011;75619;51.316;4.824;2024-03-08T08:26:06;30.92;;;12.80;;
85223;SDS011;75619;51.316;4.824;2024-03-08T08:28:33;26.60;;;11.27;;
85223;SDS011;75619;51.316;4.824;2024-03-08T08:30:59;27.70;;;12.85;;
85223;SDS011;75619;51.316;4.824;2024-03-08T08:33:25;29.00;;;12.20;;
85223;SDS011;75619;51.316;4.824;2024-03-08T08:35:51;22.52;;;9.95;;
85223;SDS011;75619;51.316;4.824;2024-03-08T08:38:19;24.00;;;9.88;;
85223;SDS011;75619;51.316;4.824;2024-03-08T08:40:45;23.38;;;12.30;;
85223;SDS011;75619;51.316;4.824;2024-03-08T08:43:14;24.73;;;12.48;;
85223;SDS011;75619;51.316;4.824;2024-03-08T08:45:39;27.83;;;12.15;;
85223;SDS011;75619;51.316;4.824;2024-03-08T08:48:05;25.42;;;12.02;;
85223;SDS011;75619;51.316;4.824;2024-03-08T08:50:31;22.02;;;11.23;;
85223;SDS011;75619;51.316;4.824;2024-03-08T08:52:57;23.73;;;10.38;;
85223;SDS011;75619;51.316;4.824;2024-03-08T08:55:23;23.88;;;10.00;;
85223;SDS011;75619;51.316;4.824;2024-03-08T08:57:52;29.30;;;12.25;;
85223;SDS011;75619;51.316;4.824;2024-03-08T09:00:21;25.80;;;11.23;;
85223;SDS011;75619;51.316;4.824;2024-03-08T09:02:49;29.27;;;12.38;;
85223;SDS011;75619;51.316;4.824;2024-03-08T09:05:16;19.00;;;10.07;;
85223;SDS011;75619;51.316;4.824;2024-03-08T09:07:42;23.67;;;11.02;;
85223;SDS011;75619;51.316;4.824;2024-03-08T09:10:11;26.17;;;12.00;;
85223;SDS011;75619;51.316;4.824;2024-03-08T09:12:40;22.48;;;10.60;;
85223;SDS011;75619;51.316;4.824;2024-03-08T09:15:06;26.23;;;10.95;;
85223;SDS011;75619;51.316;4.824;2024-03-08T09:17:36;25.63;;;11.90;;
85223;SDS011;75619;51.316;4.824;2024-03-08T09:20:05;26.70;;;12.27;;
85223;SDS011;75619;51.316;4.824;2024-03-08T09:22:35;21.83;;;10.63;;
85223;SDS011;75619;51.316;4.824;2024-03-08T09:25:01;22.77;;;9.43;;
85223;SDS011;75619;51.316;4.824;2024-03-08T09:27:27;26.73;;;11.55;;
85223;SDS011;75619;51.316;4.824;2024-03-08T09:29:54;24.65;;;10.77;;
85223;SDS011;75619;51.316;4.824;2024-03-08T09:32:20;26.90;;;11.68;;
85223;SDS011;75619;51.316;4.824;2024-03-08T09:34:45;26.15;;;11.45;;
85223;SDS011;75619;51.316;4.824;2024-03-08T09:37:11;21.92;;;10.57;;
85223;SDS011;75619;51.316;4.824;2024-03-08T09:39:37;20.73;;;11.10;;
85223;SDS011;75619;51.316;4.824;2024-03-08T09:42:03;25.05;;;10.65;;
85223;SDS011;75619;51.316;4.824;2024-03-08T09:44:30;22.10;;;10.23;;
85223;SDS011;75619;51.316;4.824;2024-03-08T09:46:56;19.95;;;10.27;;
85223;SDS011;75619;51.316;4.824;2024-03-08T09:49:23;23.88;;;10.35;;
85223;SDS011;75619;51.316;4.824;2024-03-08T09:51:50;21.95;;;11.25;;
85223;SDS011;75619;51.316;4.824;2024-03-08T09:54:16;21.63;;;11.00;;
85223;SDS011;75619;51.316;4.824;2024-03-08T09:56:42;21.55;;;9.57;;
85223;SDS011;75619;51.316;4.824;2024-03-08T09:59:09;18.40;;;9.48;;
85223;SDS011;75619;51.316;4.824;2024-03-08T10:01:53;23.35;;;9.65;;
85223;SDS011;75619;51.316;4.824;2024-03-08T10:04:22;22.15;;;10.55;;
85223;SDS011;75619;51.316;4.824;2024-03-08T10:06:47;21.55;;;9.60;;
85223;SDS011;75619;51.316;4.824;2024-03-08T10:09:13;21.77;;;11.07;;
85223;SDS011;75619;51.316;4.824;2024-03-08T10:11:39;20.90;;;9.70;;
85223;SDS011;75619;51.316;4.824;2024-03-08T10:14:05;19.92;;;10.23;;
85223;SDS011;75619;51.316;4.824;2024-03-08T10:16:33;28.45;;;11.15;;
85223;SDS011;75619;51.316;4.824;2024-03-08T10:19:00;24.63;;;10.60;;
85223;SDS011;75619;51.316;4.824;2024-03-08T10:21:26;22.33;;;9.30;;
85223;SDS011;75619;51.316;4.824;2024-03-08T10:23:52;20.88;;;9.85;;
85223;SDS011;75619;51.316;4.824;2024-03-08T10:26:18;21.00;;;10.13;;
85223;SDS011;75619;51.316;4.824;2024-03-08T10:28:47;22.30;;;10.95;;
85223;SDS011;75619;51.316;4.824;2024-03-08T10:31:14;22.92;;;9.95;;
85223;SDS011;75619;51.316;4.824;2024-03-08T10:33:43;23.10;;;9.93;;
85223;SDS011;75619;51.316;4.824;2024-03-08T10:36:09;22.08;;;10.00;;
85223;SDS011;75619;51.316;4.824;2024-03-08T10:38:37;20.92;;;10.10;;
85223;SDS011;75619;51.316;4.824;2024-03-08T10:41:09;18.20;;;9.85;;
85223;SDS011;75619;51.316;4.824;2024-03-08T10:43:59;14.38;;;7.97;;
85223;SDS011;75619;51.316;4.824;2024-03-08T10:52:50;18.77;;;10.15;;
85223;SDS011;75619;51.316;4.824;2024-03-08T10:55:17;22.70;;;9.70;;
85223;SDS011;75619;51.316;4.824;2024-03-08T10:57:45;18.95;;;9.77;;
85223;SDS011;75619;51.316;4.824;2024-03-08T11:00:13;20.08;;;9.07;;
85223;SDS011;75619;51.316;4.824;2024-03-08T11:02:43;24.80;;;9.77;;
85223;SDS011;75619;51.316;4.824;2024-03-08T11:08:01;23.67;;;9.02;;
85223;SDS011;75619;51.316;4.824;2024-03-08T11:10:28;20.08;;;9.20;;
85223;SDS011;75619;51.316;4.824;2024-03-08T11:12:54;18.00;;;9.40;;
85223;SDS011;75619;51.316;4.824;2024-03-08T11:15:19;20.55;;;9.90;;
85223;SDS011;75619;51.316;4.824;2024-03-08T11:17:46;18.48;;;8.75;;
85223;SDS011;75619;51.316;4.824;2024-03-08T11:20:17;14.77;;;7.78;;
85223;SDS011;75619;51.316;4.824;2024-03-08T11:22:52;20.45;;;9.52;;
85223;SDS011;75619;51.316;4.824;2024-03-08T11:25:38;21.23;;;9.18;;
85223;SDS011;75619;51.316;4.824;2024-03-08T11:28:12;19.25;;;9.68;;
85223;SDS011;75619;51.316;4.824;2024-03-08T11:31:28;23.85;;;9.90;;
85223;SDS011;75619;51.316;4.824;2024-03-08T11:33:29;20.67;;;9.98;;
85223;SDS011;75619;51.316;4.824;2024-03-08T11:36:09;20.00;;;9.68;;
85223;SDS011;75619;51.316;4.824;2024-03-08T11:38:44;19.35;;;9.85;;
85223;SDS011;75619;51.316;4.824;2024-03-08T11:41:20;20.52;;;9.00;;
85223;SDS011;75619;51.316;4.824;2024-03-08T11:43:47;23.88;;;10.60;;
85223;SDS011;75619;51.316;4.824;2024-03-08T11:46:13;27.92;;;9.90;;
85223;SDS011;75619;51.316;4.824;2024-03-08T11:48:40;19.27;;;10.70;;
85223;SDS011;75619;51.316;4.824;2024-03-08T11:51:13;20.88;;;10.55;;
85223;SDS011;75619;51.316;4.824;2024-03-08T11:53:40;24.23;;;9.32;;
85223;SDS011;75619;51.316;4.824;2024-03-08T11:56:12;19.63;;;9.65;;
85223;SDS011;75619;51.316;4.824;2024-03-08T11:58:39;19.85;;;9.73;;
85223;SDS011;75619;51.316;4.824;2024-03-08T12:01:06;19.80;;;9.73;;
85223;SDS011;75619;51.316;4.824;2024-03-08T12:03:39;19.98;;;10.02;;
85223;SDS011;75619;51.316;4.824;2024-03-08T12:06:07;23.98;;;9.93;;
85223;SDS011;75619;51.316;4.824;2024-03-08T12:08:37;23.13;;;10.52;;
85223;SDS011;75619;51.316;4.824;2024-03-08T12:11:05;21.55;;;10.60;;
85223;SDS011;75619;51.316;4.824;2024-03-08T12:13:33;22.90;;;11.43;;
85223;SDS011;75619;51.316;4.824;2024-03-08T12:16:00;20.27;;;10.05;;
85223;SDS011;75619;51.316;4.824;2024-03-08T12:18:29;22.20;;;10.35;;
85223;SDS011;75619;51.316;4.824;2024-03-08T12:21:05;18.77;;;9.88;;
85223;SDS011;75619;51.316;4.824;2024-03-08T12:23:35;18.40;;;9.55;;
85223;SDS011;75619;51.316;4.824;2024-03-08T12:26:23;24.77;;;11.23;;
85223;SDS011;75619;51.316;4.824;2024-03-08T12:28:51;19.38;;;10.57;;
85223;SDS011;75619;51.316;4.824;2024-03-08T12:31:17;23.20;;;9.43;;
85223;SDS011;75619;51.316;4.824;2024-03-08T12:33:52;18.83;;;9.00;;
85223;SDS011;75619;51.316;4.824;2024-03-08T12:36:19;19.20;;;8.65;;
85223;SDS011;75619;51.316;4.824;2024-03-08T12:38:46;18.95;;;9.60;;
85223;SDS011;75619;51.316;4.824;2024-03-08T12:41:16;18.05;;;9.02;;
85223;SDS011;75619;51.316;4.824;2024-03-08T12:43:43;21.52;;;9.95;;
85223;SDS011;75619;51.316;4.824;2024-03-08T12:46:22;18.30;;;9.50;;
85223;SDS011;75619;51.316;4.824;2024-03-08T12:48:51;19.48;;;9.35;;
85223;SDS011;75619;51.316;4.824;2024-03-08T12:51:19;20.85;;;9.73;;
85223;SDS011;75619;51.316;4.824;2024-03-08T12:53:46;21.08;;;11.27;;
85223;SDS011;75619;51.316;4.824;2024-03-08T12:56:31;19.45;;;10.02;;
85223;SDS011;75619;51.316;4.824;2024-03-08T12:58:58;20.80;;;9.55;;
85223;SDS011;75619;51.316;4.824;2024-03-08T13:01:23;20.73;;;9.13;;
85223;SDS011;75619;51.316;4.824;2024-03-08T13:03:49;23.38;;;9.95;;
85223;SDS011;75619;51.316;4.824;2024-03-08T13:06:15;17.38;;;9.93;;
85223;SDS011;75619;51.316;4.824;2024-03-08T13:08:41;17.25;;;8.07;;
85223;SDS011;75619;51.316;4.824;2024-03-08T13:11:07;19.20;;;10.05;;
85223;SDS011;75619;51.316;4.824;2024-03-08T13:13:33;16.65;;;8.95;;
85223;SDS011;75619;51.316;4.824;2024-03-08T13:16:02;19.30;;;8.75;;
85223;SDS011;75619;51.316;4.824;2024-03-08T13:18:28;18.30;;;9.35;;
85223;SDS011;75619;51.316;4.824;2024-03-08T13:20:54;21.52;;;9.95;;
85223;SDS011;75619;51.316;4.824;2024-03-08T13:23:20;22.33;;;9.50;;
85223;SDS011;75619;51.316;4.824;2024-03-08T13:25:46;20.85;;;9.60;;
85223;SDS011;75619;51.316;4.824;2024-03-08T13:28:14;19.88;;;9.48;;
85223;SDS011;75619;51.316;4.824;2024-03-08T13:30:42;17.65;;;8.93;;
85223;SDS011;75619;51.316;4.824;2024-03-08T13:33:09;23.20;;;9.40;;
85223;SDS011;75619;51.316;4.824;2024-03-08T13:35:34;17.05;;;9.05;;
85223;SDS011;75619;51.316;4.824;2024-03-08T13:38:00;17.40;;;9.20;;
85223;SDS011;75619;51.316;4.824;2024-03-08T13:40:28;21.75;;;9.43;;
85223;SDS011;75619;51.316;4.824;2024-03-08T13:42:54;19.20;;;9.57;;
85223;SDS011;75619;51.316;4.824;2024-03-08T13:45:19;21.42;;;9.10;;
85223;SDS011;75619;51.316;4.824;2024-03-08T13:47:49;18.70;;;9.55;;
85223;SDS011;75619;51.316;4.824;2024-03-08T13:50:16;19.73;;;8.68;;
85223;SDS011;75619;51.316;4.824;2024-03-08T13:52:49;16.92;;;8.65;;
85223;SDS011;75619;51.316;4.824;2024-03-08T13:55:19;22.42;;;9.68;;
85223;SDS011;75619;51.316;4.824;2024-03-08T13:57:45;18.30;;;8.88;;
85223;SDS011;75619;51.316;4.824;2024-03-08T14:00:12;17.90;;;9.30;;
85223;SDS011;75619;51.316;4.824;2024-03-08T14:02:39;17.08;;;8.88;;
85223;SDS011;75619;51.316;4.824;2024-03-08T14:05:09;18.35;;;9.60;;
85223;SDS011;75619;51.316;4.824;2024-03-08T14:07:36;18.27;;;8.98;;
85223;SDS011;75619;51.316;4.824;2024-03-08T14:10:02;14.57;;;7.28;;
85223;SDS011;75619;51.316;4.824;2024-03-08T14:12:28;17.73;;;8.32;;
85223;SDS011;75619;51.316;4.824;2024-03-08T14:14:55;15.68;;;9.00;;
85223;SDS011;75619;51.316;4.824;2024-03-08T14:17:26;19.70;;;8.10;;
85223;SDS011;75619;51.316;4.824;2024-03-08T14:19:53;16.10;;;8.43;;
85223;SDS011;75619;51.316;4.824;2024-03-08T14:22:19;15.63;;;7.05;;
85223;SDS011;75619;51.316;4.824;2024-03-08T14:24:45;16.33;;;8.40;;
85223;SDS011;75619;51.316;4.824;2024-03-08T14:27:11;15.48;;;7.85;;
85223;SDS011;75619;51.316;4.824;2024-03-08T14:29:37;15.70;;;8.68;;
85223;SDS011;75619;51.316;4.824;2024-03-08T14:32:04;18.20;;;8.15;;
85223;SDS011;75619;51.316;4.824;2024-03-08T14:34:31;15.88;;;8.45;;
85223;SDS011;75619;51.316;4.824;2024-03-08T14:36:59;16.05;;;8.10;;
85223;SDS011;75619;51.316;4.824;2024-03-08T14:39:25;15.70;;;8.45;;
85223;SDS011;75619;51.316;4.824;2024-03-08T14:41:54;15.50;;;8.05;;
85223;SDS011;75619;51.316;4.824;2024-03-08T14:44:23;13.20;;;7.22;;
85223;SDS011;75619;51.316;4.824;2024-03-08T14:46:52;18.48;;;8.88;;
85223;SDS011;75619;51.316;4.824;2024-03-08T14:49:18;18.80;;;8.63;;
85223;SDS011;75619;51.316;4.824;2024-03-08T14:51:46;15.82;;;8.40;;
85223;SDS011;75619;51.316;4.824;2024-03-08T14:54:12;18.20;;;8.68;;
85223;SDS011;75619;51.316;4.824;2024-03-08T14:56:38;16.10;;;8.32;;
85223;SDS011;75619;51.316;4.824;2024-03-08T14:59:06;16.35;;;8.23;;
85223;SDS011;75619;51.316;4.824;2024-03-08T15:01:34;15.73;;;8.70;;
85223;SDS011;75619;51.316;4.824;2024-03-08T15:04:01;19.00;;;9.10;;
85223;SDS011;75619;51.316;4.824;2024-03-08T15:06:40;16.02;;;8.10;;
85223;SDS011;75619;51.316;4.824;2024-03-08T15:09:07;17.73;;;8.48;;
85223;SDS011;75619;51.316;4.824;2024-03-08T15:11:45;18.05;;;8.30;;
85223;SDS011;75619;51.316;4.824;2024-03-08T15:14:11;17.27;;;9.15;;
85223;SDS011;75619;51.316;4.824;2024-03-08T15:16:37;20.00;;;8.88;;
85223;SDS011;75619;51.316;4.824;2024-03-08T15:19:05;17.92;;;8.68;;
85223;SDS011;75619;51.316;4.824;2024-03-08T15:21:31;15.60;;;7.78;;
85223;SDS011;75619;51.316;4.824;2024-03-08T15:23:56;17.45;;;8.82;;
85223;SDS011;75619;51.316;4.824;2024-03-08T15:26:22;16.75;;;8.55;;
85223;SDS011;75619;51.316;4.824;2024-03-08T15:28:48;17.30;;;8.27;;
85223;SDS011;75619;51.316;4.824;2024-03-08T15:31:17;16.05;;;7.82;;
85223;SDS011;75619;51.316;4.824;2024-03-08T15:33:46;22.45;;;9.75;;
85223;SDS011;75619;51.316;4.824;2024-03-08T15:36:16;16.88;;;8.07;;
85223;SDS011;75619;51.316;4.824;2024-03-08T15:38:46;19.25;;;9.63;;
85223;SDS011;75619;51.316;4.824;2024-03-08T15:41:16;16.35;;;8.35;;
85223;SDS011;75619;51.316;4.824;2024-03-08T15:43:43;19.08;;;9.48;;
85223;SDS011;75619;51.316;4.824;2024-03-08T15:46:09;16.65;;;8.80;;
85223;SDS011;75619;51.316;4.824;2024-03-08T15:48:36;17.13;;;8.50;;
85223;SDS011;75619;51.316;4.824;2024-03-08T15:51:02;18.77;;;8.63;;
85223;SDS011;75619;51.316;4.824;2024-03-08T15:53:31;20.00;;;9.20;;
85223;SDS011;75619;51.316;4.824;2024-03-08T15:55:57;19.05;;;8.35;;
85223;SDS011;75619;51.316;4.824;2024-03-08T15:58:24;19.30;;;9.38;;
85223;SDS011;75619;51.316;4.824;2024-03-08T16:00:50;14.85;;;7.53;;
85223;SDS011;75619;51.316;4.824;2024-03-08T16:03:17;18.60;;;7.90;;
85223;SDS011;75619;51.316;4.824;2024-03-08T16:05:44;18.15;;;8.75;;
85223;SDS011;75619;51.316;4.824;2024-03-08T16:08:10;17.33;;;8.00;;
85223;SDS011;75619;51.316;4.824;2024-03-08T16:10:56;18.63;;;8.63;;
85223;SDS011;75619;51.316;4.824;2024-03-08T16:13:23;15.85;;;8.40;;